createdAt,value
2022-12-29T00:00:37.997Z,10.60
2022-12-29T00:04:39.772Z,10.60
2022-12-29T00:08:41.845Z,10.60
2022-12-29T00:13:02.080Z,10.60
2022-12-29T00:17:04.030Z,10.60
2022-12-29T00:21:24.607Z,10.70
2022-12-29T00:25:44.842Z,10.70
2022-12-29T00:30:05.217Z,10.80
2022-12-29T00:34:30.144Z,10.90
2022-12-29T00:38:52.728Z,10.90
2022-12-29T00:43:12.949Z,11.00
2022-12-29T00:47:15.938Z,11.10
2022-12-29T00:51:20.125Z,11.20
2022-12-29T00:55:22.187Z,11.20
2022-12-29T00:59:25.185Z,11.20
2022-12-29T01:03:27.042Z,11.10
2022-12-29T01:07:28.818Z,11.20
2022-12-29T01:11:30.545Z,11.00
2022-12-29T01:15:32.349Z,11.00
2022-12-29T01:19:34.145Z,11.00
2022-12-29T01:23:35.903Z,10.90
2022-12-29T01:27:37.690Z,10.90
2022-12-29T01:31:39.482Z,10.80
2022-12-29T01:35:41.289Z,10.80
2022-12-29T01:39:43.031Z,10.80
2022-12-29T01:43:57.390Z,10.80
2022-12-29T01:48:03.427Z,10.80
2022-12-29T01:52:07.323Z,10.80
2022-12-29T01:56:10.726Z,10.80
2022-12-29T02:00:14.728Z,10.80
2022-12-29T02:04:16.500Z,10.80
2022-12-29T02:08:22.009Z,10.80
2022-12-29T02:12:24.215Z,10.80
2022-12-29T02:17:00.671Z,10.80
2022-12-29T02:21:46.464Z,10.80
2022-12-29T02:26:19.230Z,10.90
2022-12-29T02:30:49.852Z,10.90
2022-12-29T02:35:15.191Z,10.90
2022-12-29T02:39:38.112Z,10.90
2022-12-29T02:44:05.359Z,10.90
2022-12-29T02:48:33.205Z,11.00
2022-12-29T02:53:06.375Z,11.10
2022-12-29T02:57:23.301Z,11.10
2022-12-29T03:02:09.155Z,11.10
2022-12-29T03:06:27.101Z,11.10
2022-12-29T03:11:09.059Z,11.30
2022-12-29T03:15:32.933Z,11.30
2022-12-29T03:19:48.047Z,11.40
2022-12-29T03:23:57.051Z,11.40
2022-12-29T03:28:03.193Z,11.50
2022-12-29T03:32:05.154Z,11.50
2022-12-29T03:36:11.219Z,11.60
2022-12-29T03:40:12.959Z,11.60
2022-12-29T03:44:14.872Z,11.60
2022-12-29T03:48:16.620Z,11.70
2022-12-29T03:52:18.991Z,11.70
2022-12-29T03:56:20.718Z,11.70
2022-12-29T04:00:22.441Z,11.80
2022-12-29T04:04:24.173Z,11.80
2022-12-29T04:08:26.076Z,11.80
2022-12-29T04:12:27.862Z,11.80
2022-12-29T04:16:29.554Z,11.90
2022-12-29T04:20:49.699Z,11.90
2022-12-29T04:24:51.368Z,11.90
2022-12-29T04:28:53.184Z,11.90
2022-12-29T04:32:54.973Z,11.90
2022-12-29T04:36:56.741Z,11.90
2022-12-29T04:41:01.593Z,12.00
2022-12-29T04:45:03.521Z,12.00
2022-12-29T04:49:09.463Z,12.00
2022-12-29T04:53:11.524Z,12.10
2022-12-29T04:57:13.263Z,12.10
2022-12-29T05:01:15.142Z,12.10
2022-12-29T05:05:17.198Z,12.10
2022-12-29T05:09:18.998Z,12.10
2022-12-29T05:13:20.731Z,12.10
2022-12-29T05:17:22.508Z,12.10
2022-12-29T05:21:24.372Z,12.00
2022-12-29T05:25:26.180Z,12.00
2022-12-29T05:29:28.068Z,11.90
2022-12-29T05:33:29.799Z,11.90
2022-12-29T05:37:31.533Z,11.90
2022-12-29T05:41:33.314Z,11.80
2022-12-29T05:45:36.894Z,11.80
2022-12-29T05:49:38.635Z,11.80
2022-12-29T05:53:40.367Z,11.90
2022-12-29T05:57:42.198Z,11.90
2022-12-29T06:01:44.002Z,11.90
2022-12-29T06:05:47.133Z,11.90
2022-12-29T06:09:48.887Z,11.90
2022-12-29T06:13:50.616Z,11.90
2022-12-29T06:17:52.407Z,11.90
2022-12-29T06:21:54.712Z,11.90
2022-12-29T06:25:56.481Z,11.90
2022-12-29T06:29:58.371Z,11.90
2022-12-29T06:34:05.080Z,11.90
2022-12-29T06:38:11.679Z,11.90
2022-12-29T06:42:16.182Z,11.90
2022-12-29T06:46:21.148Z,11.80
2022-12-29T06:50:23.045Z,11.80
2022-12-29T06:54:25.016Z,11.80
2022-12-29T06:58:27.102Z,11.70
2022-12-29T07:02:29.010Z,11.60
2022-12-29T07:06:30.860Z,11.60
2022-12-29T07:10:32.857Z,11.60
2022-12-29T07:14:40.753Z,11.50
2022-12-29T07:18:44.544Z,11.50
2022-12-29T07:22:48.059Z,11.40
2022-12-29T07:26:49.808Z,11.40
2022-12-29T07:30:51.569Z,11.40
2022-12-29T07:34:53.374Z,11.50
2022-12-29T07:38:55.140Z,11.60
2022-12-29T07:42:56.873Z,11.70
2022-12-29T07:46:59.280Z,11.70
2022-12-29T07:51:01.172Z,11.70
2022-12-29T07:55:02.901Z,11.80
2022-12-29T07:59:05.025Z,11.80
2022-12-29T08:03:06.751Z,11.90
2022-12-29T08:07:08.486Z,12.00
2022-12-29T08:11:10.250Z,12.10
2022-12-29T08:15:12.982Z,12.10
2022-12-29T08:19:15.149Z,12.20
2022-12-29T08:23:16.949Z,12.30
2022-12-29T08:27:21.041Z,12.50
2022-12-29T08:31:24.164Z,12.60
2022-12-29T08:35:25.960Z,12.70
2022-12-29T08:39:28.189Z,12.70
2022-12-29T08:43:30.015Z,12.70
2022-12-29T08:47:31.784Z,12.80
2022-12-29T08:51:33.586Z,12.70
2022-12-29T08:55:35.383Z,12.60
2022-12-29T08:59:37.143Z,12.50
2022-12-29T09:04:12.820Z,12.50
2022-12-29T09:08:00.809Z,12.40
2022-12-29T09:12:02.547Z,12.40
2022-12-29T09:16:04.707Z,12.40
2022-12-29T09:20:07.067Z,12.40
2022-12-29T09:24:08.936Z,12.40
2022-12-29T09:28:11.111Z,12.40
2022-12-29T09:32:18.317Z,12.50
2022-12-29T09:36:20.732Z,12.50
2022-12-29T09:40:36.518Z,12.60
2022-12-29T09:45:18.592Z,12.50
2022-12-29T09:49:50.999Z,12.60
2022-12-29T09:54:04.260Z,12.70
2022-12-29T09:58:13.486Z,12.90
2022-12-29T10:02:33.822Z,13.00
2022-12-29T10:07:28.562Z,13.10
2022-12-29T10:11:53.556Z,13.20
2022-12-29T10:16:18.578Z,13.40
2022-12-29T10:20:50.811Z,13.40
2022-12-29T10:24:53.209Z,13.50
2022-12-29T10:29:04.671Z,13.60
2022-12-29T10:33:08.824Z,13.60
2022-12-29T10:37:42.623Z,13.60
2022-12-29T10:42:00.372Z,13.60
2022-12-29T10:46:25.228Z,13.70
2022-12-29T10:50:30.945Z,13.80
2022-12-29T10:54:50.926Z,13.90
2022-12-29T10:58:52.770Z,14.00
2022-12-29T11:03:32.325Z,14.20
2022-12-29T11:07:34.556Z,14.30
2022-12-29T11:11:37.642Z,14.50
2022-12-29T11:15:42.014Z,14.70
2022-12-29T11:19:44.379Z,14.80
2022-12-29T11:23:48.651Z,14.80
2022-12-29T11:28:05.228Z,14.70
2022-12-29T11:32:26.126Z,14.60
2022-12-29T11:36:30.752Z,14.60
2022-12-29T11:40:32.943Z,14.80
2022-12-29T11:44:39.003Z,15.00
2022-12-29T11:48:41.415Z,15.00
2022-12-29T11:52:43.367Z,15.10
2022-12-29T11:56:45.311Z,15.20
2022-12-29T12:00:47.329Z,15.10
2022-12-29T12:04:57.581Z,15.10
2022-12-29T12:09:07.005Z,14.90
2022-12-29T12:13:42.511Z,14.80
2022-12-29T12:18:25.300Z,14.70
2022-12-29T12:22:39.545Z,14.60
2022-12-29T12:26:49.650Z,14.60
2022-12-29T12:30:58.905Z,14.60
2022-12-29T12:35:16.831Z,14.70
2022-12-29T12:39:28.077Z,14.70
2022-12-29T12:43:52.432Z,14.70
2022-12-29T12:48:35.397Z,14.60
2022-12-29T12:53:32.266Z,14.60
2022-12-29T12:58:13.233Z,14.60
2022-12-29T13:02:36.209Z,14.60
2022-12-29T13:07:22.475Z,14.70
2022-12-29T13:11:36.035Z,14.80
2022-12-29T13:16:13.781Z,14.90
2022-12-29T13:20:24.974Z,14.90
2022-12-29T13:24:54.135Z,14.90
2022-12-29T13:29:18.695Z,14.90
2022-12-29T13:33:42.874Z,14.80
2022-12-29T13:38:22.399Z,14.80
2022-12-29T13:42:24.444Z,14.70
2022-12-29T13:46:34.506Z,14.70
2022-12-29T13:50:38.856Z,14.60
2022-12-29T13:54:57.075Z,14.50
2022-12-29T13:59:21.232Z,14.40
2022-12-29T14:03:53.401Z,14.40
2022-12-29T14:08:04.313Z,14.40
2022-12-29T14:12:40.965Z,14.40
2022-12-29T14:16:43.933Z,14.40
2022-12-29T14:21:09.764Z,14.40
2022-12-29T14:25:57.388Z,14.30
2022-12-29T14:29:59.123Z,14.40
2022-12-29T14:34:06.992Z,14.30
2022-12-29T14:38:17.154Z,14.30
2022-12-29T14:42:23.537Z,14.30
2022-12-29T14:46:25.631Z,14.20
2022-12-29T14:50:43.756Z,14.20
2022-12-29T14:54:51.494Z,14.10
2022-12-29T14:59:03.797Z,14.10
2022-12-29T15:03:23.611Z,14.00
2022-12-29T15:07:25.429Z,14.00
2022-12-29T15:11:41.785Z,13.80
2022-12-29T15:15:43.712Z,13.70
2022-12-29T15:19:45.501Z,13.70
2022-12-29T15:23:47.256Z,13.70
2022-12-29T15:27:54.274Z,13.60
2022-12-29T15:32:01.154Z,13.50
2022-12-29T15:36:04.595Z,13.40
2022-12-29T15:40:28.658Z,13.40
2022-12-29T15:44:41.703Z,13.20
2022-12-29T15:48:43.733Z,13.20
2022-12-29T15:52:45.480Z,13.20
2022-12-29T15:56:47.369Z,13.20
2022-12-29T16:00:51.901Z,13.20
2022-12-29T16:05:16.698Z,13.10
2022-12-29T16:09:20.030Z,13.00
2022-12-29T16:13:40.390Z,12.90
2022-12-29T16:17:51.772Z,12.80
2022-12-29T16:21:53.548Z,12.70
2022-12-29T16:25:56.088Z,12.70
2022-12-29T16:29:58.039Z,12.60
2022-12-29T16:33:59.940Z,12.60
2022-12-29T16:38:23.089Z,12.50
2022-12-29T16:42:39.824Z,12.50
2022-12-29T16:47:05.362Z,12.50
2022-12-29T16:51:18.522Z,12.40
2022-12-29T16:55:20.583Z,12.40
2022-12-29T16:59:30.134Z,12.30
2022-12-29T17:03:58.414Z,12.30
2022-12-29T17:08:02.015Z,12.30
2022-12-29T17:12:10.896Z,12.30
2022-12-29T17:16:13.651Z,12.20
2022-12-29T17:20:23.026Z,12.20
2022-12-29T17:24:25.278Z,12.10
2022-12-29T17:28:29.667Z,12.00
2022-12-29T17:32:31.820Z,11.90
2022-12-29T17:36:33.599Z,11.80
2022-12-29T17:40:35.718Z,11.80
2022-12-29T17:44:37.423Z,11.70
2022-12-29T17:48:39.246Z,11.70
2022-12-29T17:52:41.483Z,11.60
2022-12-29T17:56:43.462Z,11.60
2022-12-29T18:00:46.032Z,11.50
2022-12-29T18:04:47.802Z,11.50
2022-12-29T18:08:49.605Z,11.40
2022-12-29T18:12:53.154Z,11.30
2022-12-29T18:16:55.949Z,11.30
2022-12-29T18:20:59.768Z,11.20
2022-12-29T18:25:02.922Z,11.20
2022-12-29T18:29:04.676Z,11.20
2022-12-29T18:33:19.346Z,11.20
2022-12-29T18:37:23.257Z,11.20
2022-12-29T18:41:29.680Z,11.10
2022-12-29T18:45:33.057Z,11.10
2022-12-29T18:49:34.761Z,11.00
2022-12-29T18:53:37.980Z,11.00
2022-12-29T18:57:39.901Z,11.00
2022-12-29T19:01:41.731Z,11.10
2022-12-29T19:05:45.202Z,11.10
2022-12-29T19:09:47.046Z,11.20
2022-12-29T19:13:48.866Z,11.30
2022-12-29T19:18:16.192Z,11.40
2022-12-29T19:22:12.840Z,11.50
2022-12-29T19:26:38.697Z,11.50
2022-12-29T19:30:40.429Z,11.50
2022-12-29T19:34:42.319Z,11.50
2022-12-29T19:38:45.154Z,11.50
2022-12-29T19:42:47.023Z,11.40
2022-12-29T19:46:48.844Z,11.40
2022-12-29T19:50:51.008Z,11.40
2022-12-29T19:54:53.625Z,11.30
2022-12-29T19:58:57.480Z,11.40
2022-12-29T20:02:59.393Z,11.40
2022-12-29T20:07:01.209Z,11.40
2022-12-29T20:11:09.276Z,11.40
2022-12-29T20:15:11.432Z,11.40
2022-12-29T20:19:13.252Z,11.40
2022-12-29T20:23:14.999Z,11.40
2022-12-29T20:27:16.861Z,11.30
2022-12-29T20:31:19.896Z,11.30
2022-12-29T20:35:21.706Z,11.20
2022-12-29T20:39:23.442Z,11.10
2022-12-29T20:43:25.178Z,11.00
2022-12-29T20:47:27.371Z,10.90
2022-12-29T20:51:55.280Z,10.90
2022-12-29T20:55:54.973Z,10.80
2022-12-29T20:59:56.791Z,10.80
2022-12-29T21:03:58.545Z,10.70
2022-12-29T21:08:00.394Z,10.70
2022-12-29T21:12:02.532Z,10.60
2022-12-29T21:16:07.303Z,10.60
2022-12-29T21:20:10.009Z,10.50
2022-12-29T21:24:13.620Z,10.50
2022-12-29T21:28:15.450Z,10.50
2022-12-29T21:32:17.189Z,10.40
2022-12-29T21:36:18.949Z,10.40
2022-12-29T21:40:22.644Z,10.40
2022-12-29T21:44:42.928Z,10.40
2022-12-29T21:48:44.788Z,10.40
2022-12-29T21:52:46.611Z,10.30
2022-12-29T21:56:49.538Z,10.20
2022-12-29T22:01:13.161Z,10.20
2022-12-29T22:05:36.351Z,10.10
2022-12-29T22:09:56.394Z,10.10
2022-12-29T22:13:58.255Z,10.00
2022-12-29T22:18:00.941Z,10.00
2022-12-29T22:22:02.791Z,10.00
2022-12-29T22:26:05.944Z,10.00
2022-12-29T22:30:08.353Z,10.00
2022-12-29T22:34:14.273Z,10.00
2022-12-29T22:38:16.003Z,10.00
2022-12-29T22:42:18.004Z,10.00
2022-12-29T22:46:20.003Z,10.00
2022-12-29T22:50:21.897Z,10.00
2022-12-29T22:54:23.691Z,10.10
2022-12-29T22:58:25.433Z,10.10
2022-12-29T23:02:27.626Z,10.10
2022-12-29T23:06:29.876Z,10.10
2022-12-29T23:10:34.290Z,10.20
2022-12-29T23:14:36.009Z,10.20
2022-12-29T23:18:37.928Z,10.20
2022-12-29T23:22:39.653Z,10.20
2022-12-29T23:26:43.777Z,10.20
2022-12-29T23:30:45.486Z,10.20
2022-12-29T23:34:47.263Z,10.20
2022-12-29T23:38:48.976Z,10.20
2022-12-29T23:42:50.760Z,10.20
2022-12-29T23:46:52.883Z,10.20
2022-12-29T23:50:55.628Z,10.20
2022-12-29T23:54:57.502Z,10.20
2022-12-29T23:58:59.283Z,10.10
